createdAt,value
2023-03-03T00:02:06.161Z,49.55
2023-03-03T00:04:33.681Z,49.47
2023-03-03T00:07:01.199Z,49.09
2023-03-03T00:09:28.703Z,49.44
2023-03-03T00:12:00.532Z,49.92
2023-03-03T00:14:33.267Z,49.39
2023-03-03T00:17:12.583Z,49.79
2023-03-03T00:19:41.203Z,49.65
2023-03-03T00:22:31.432Z,49.45
2023-03-03T00:25:21.039Z,49.47
2023-03-03T00:27:48.622Z,50.01
2023-03-03T00:30:27.716Z,49.90
2023-03-03T00:32:56.027Z,49.43
2023-03-03T00:35:35.390Z,49.25
2023-03-03T00:38:18.754Z,49.29
2023-03-03T00:40:48.056Z,49.68
2023-03-03T00:43:25.227Z,49.06
2023-03-03T00:45:57.820Z,49.32
2023-03-03T00:48:43.250Z,49.50
2023-03-03T00:51:34.335Z,49.39
2023-03-03T00:54:01.963Z,49.52
2023-03-03T00:56:29.465Z,49.47
2023-03-03T00:58:57.802Z,49.61
2023-03-03T01:01:28.157Z,49.85
2023-03-03T01:03:55.981Z,49.33
2023-03-03T01:06:23.840Z,49.56
2023-03-03T01:08:51.853Z,49.41
2023-03-03T01:11:25.837Z,49.67
2023-03-03T01:13:53.502Z,49.78
2023-03-03T01:16:21.339Z,49.28
2023-03-03T01:18:48.998Z,49.75
2023-03-03T01:21:16.514Z,49.31
2023-03-03T01:23:44.136Z,49.90
2023-03-03T01:26:11.711Z,50.10
2023-03-03T01:28:39.805Z,50.04
2023-03-03T01:31:07.565Z,49.54
2023-03-03T01:33:36.395Z,49.28
2023-03-03T01:36:04.667Z,49.93
2023-03-03T01:38:35.084Z,49.91
2023-03-03T01:41:03.194Z,49.76
2023-03-03T01:43:33.300Z,49.56
2023-03-03T01:46:00.707Z,50.07
2023-03-03T01:48:42.584Z,49.70
2023-03-03T01:51:25.955Z,49.98
2023-03-03T01:54:12.426Z,49.62
2023-03-03T01:56:41.440Z,49.40
2023-03-03T01:59:25.706Z,49.34
2023-03-03T02:01:53.455Z,48.97
2023-03-03T02:04:22.000Z,49.54
2023-03-03T02:06:58.101Z,49.38
2023-03-03T02:10:04.635Z,49.34
2023-03-03T02:12:39.268Z,49.16
2023-03-03T02:15:37.564Z,49.06
2023-03-03T02:18:18.926Z,50.05
2023-03-03T02:20:58.930Z,49.27
2023-03-03T02:23:49.736Z,49.50
2023-03-03T02:26:23.476Z,50.17
2023-03-03T02:28:56.139Z,49.43
2023-03-03T02:31:27.697Z,50.03
2023-03-03T02:33:56.445Z,49.76
2023-03-03T02:36:34.414Z,49.58
2023-03-03T02:39:20.554Z,49.26
2023-03-03T02:42:20.322Z,49.58
2023-03-03T02:44:52.249Z,49.49
2023-03-03T02:47:19.920Z,49.04
2023-03-03T02:49:47.483Z,49.82
2023-03-03T02:52:17.980Z,49.92
2023-03-03T02:54:47.409Z,49.77
2023-03-03T02:57:15.061Z,50.34
2023-03-03T02:59:42.574Z,50.37
2023-03-03T03:02:15.067Z,50.23
2023-03-03T03:04:43.092Z,50.28
2023-03-03T03:07:13.140Z,49.58
2023-03-03T03:09:40.827Z,50.11
2023-03-03T03:12:09.151Z,49.51
2023-03-03T03:14:37.484Z,49.77
2023-03-03T03:17:06.594Z,50.39
2023-03-03T03:19:34.198Z,49.77
2023-03-03T03:22:03.500Z,49.62
2023-03-03T03:24:34.055Z,49.68
2023-03-03T03:27:05.058Z,49.83
2023-03-03T03:29:33.323Z,50.44
2023-03-03T03:32:01.301Z,50.49
2023-03-03T03:34:28.979Z,50.57
2023-03-03T03:36:57.047Z,49.94
2023-03-03T03:39:26.929Z,50.31
2023-03-03T03:41:55.047Z,50.27
2023-03-03T03:44:23.925Z,50.31
2023-03-03T03:46:51.567Z,49.85
2023-03-03T03:49:20.853Z,50.06
2023-03-03T03:51:49.583Z,50.23
2023-03-03T03:54:20.267Z,49.99
2023-03-03T03:56:48.497Z,49.63
2023-03-03T03:59:16.088Z,50.39
2023-03-03T04:01:43.645Z,50.25
2023-03-03T04:04:11.194Z,50.25
2023-03-03T04:06:39.769Z,50.42
2023-03-03T04:09:07.753Z,50.78
2023-03-03T04:11:35.858Z,50.65
2023-03-03T04:14:05.487Z,50.77
2023-03-03T04:16:33.980Z,50.37
2023-03-03T04:19:01.512Z,50.00
2023-03-03T04:21:29.790Z,50.40
2023-03-03T04:23:59.886Z,50.92
2023-03-03T04:26:30.945Z,50.38
2023-03-03T04:29:01.578Z,50.45
2023-03-03T04:31:29.679Z,50.10
2023-03-03T04:33:57.322Z,50.36
2023-03-03T04:36:25.476Z,50.75
2023-03-03T04:38:53.288Z,50.17
2023-03-03T04:41:21.369Z,50.54
2023-03-03T04:43:49.002Z,50.51
2023-03-03T04:46:16.674Z,50.67
2023-03-03T04:48:44.256Z,50.50
2023-03-03T04:51:12.163Z,50.62
2023-03-03T04:53:39.745Z,50.88
2023-03-03T04:56:09.131Z,50.00
2023-03-03T04:58:37.372Z,50.52
2023-03-03T05:01:05.367Z,50.57
2023-03-03T05:03:34.098Z,49.96
2023-03-03T05:06:01.640Z,50.24
2023-03-03T05:08:29.134Z,50.28
2023-03-03T05:10:56.849Z,50.63
2023-03-03T05:13:24.380Z,50.30
2023-03-03T05:15:55.398Z,50.47
2023-03-03T05:18:24.869Z,50.41
2023-03-03T05:20:52.827Z,50.38
2023-03-03T05:23:21.672Z,50.21
2023-03-03T05:25:50.414Z,50.31
2023-03-03T05:28:18.567Z,49.93
2023-03-03T05:30:46.772Z,50.56
2023-03-03T05:33:16.761Z,49.31
2023-03-03T05:35:44.786Z,50.03
2023-03-03T05:38:12.631Z,49.54
2023-03-03T05:40:40.256Z,49.30
2023-03-03T05:43:07.797Z,50.06
2023-03-03T05:45:35.667Z,49.88
2023-03-03T05:48:04.834Z,50.08
2023-03-03T05:50:32.755Z,50.36
2023-03-03T05:53:01.372Z,49.77
2023-03-03T05:55:28.920Z,50.23
2023-03-03T05:57:56.546Z,49.67
2023-03-03T06:00:24.224Z,49.80
2023-03-03T06:02:51.861Z,49.74
2023-03-03T06:05:19.357Z,50.15
2023-03-03T06:07:46.918Z,49.17
2023-03-03T06:10:14.509Z,48.98
2023-03-03T06:12:45.086Z,49.23
2023-03-03T06:15:12.619Z,49.45
2023-03-03T06:17:40.233Z,49.63
2023-03-03T06:20:08.732Z,49.41
2023-03-03T06:22:36.224Z,49.49
2023-03-03T06:25:04.057Z,49.15
2023-03-03T06:27:31.548Z,49.62
2023-03-03T06:29:59.117Z,49.13
2023-03-03T06:32:26.673Z,49.25
2023-03-03T06:34:54.205Z,49.33
2023-03-03T06:37:21.694Z,49.59
2023-03-03T06:39:49.206Z,48.95
2023-03-03T06:42:16.733Z,48.82
2023-03-03T06:44:44.608Z,49.18
2023-03-03T06:47:12.209Z,48.82
2023-03-03T06:49:39.874Z,49.42
2023-03-03T06:52:22.330Z,49.65
2023-03-03T06:54:50.920Z,48.70
2023-03-03T06:57:31.400Z,49.18
2023-03-03T07:00:20.366Z,49.58
2023-03-03T07:03:00.144Z,48.27
2023-03-03T07:05:28.977Z,48.31
2023-03-03T07:07:57.243Z,48.92
2023-03-03T07:10:29.068Z,48.42
2023-03-03T07:13:16.367Z,48.14
2023-03-03T07:15:44.717Z,47.70
2023-03-03T07:18:25.947Z,47.78
2023-03-03T07:20:53.465Z,47.58
2023-03-03T07:23:26.693Z,47.79
2023-03-03T07:25:54.362Z,47.64
2023-03-03T07:28:28.613Z,47.50
2023-03-03T07:30:58.195Z,48.01
2023-03-03T07:33:29.842Z,47.51
2023-03-03T07:35:59.478Z,46.75
2023-03-03T07:38:43.829Z,47.78
2023-03-03T07:41:15.243Z,47.07
2023-03-03T07:43:54.898Z,47.27
2023-03-03T07:46:42.880Z,46.71
2023-03-03T07:49:21.471Z,47.10
2023-03-03T07:51:59.867Z,47.23
2023-03-03T07:54:40.287Z,46.98
2023-03-03T07:57:36.835Z,46.62
2023-03-03T08:00:16.781Z,46.60
2023-03-03T08:03:15.190Z,47.02
2023-03-03T08:05:46.741Z,47.21
2023-03-03T08:08:36.743Z,47.23
2023-03-03T08:11:05.820Z,46.39
2023-03-03T08:13:33.230Z,46.49
2023-03-03T08:16:09.953Z,46.17
2023-03-03T08:18:47.703Z,45.74
2023-03-03T08:21:20.964Z,45.24
2023-03-03T08:23:53.482Z,45.35
2023-03-03T08:26:22.890Z,45.78
2023-03-03T08:28:51.580Z,46.13
2023-03-03T08:31:31.070Z,46.17
2023-03-03T08:34:06.231Z,45.49
2023-03-03T08:36:34.788Z,46.12
2023-03-03T08:39:05.182Z,45.83
2023-03-03T08:41:32.766Z,45.67
2023-03-03T08:44:00.276Z,45.99
2023-03-03T08:46:28.634Z,45.67
2023-03-03T08:48:56.225Z,45.49
2023-03-03T08:51:25.185Z,46.02
2023-03-03T08:53:52.757Z,45.80
2023-03-03T08:56:20.302Z,46.14
2023-03-03T08:59:01.548Z,45.74
2023-03-03T09:01:32.778Z,45.69
2023-03-03T09:04:00.837Z,45.75
2023-03-03T09:06:28.453Z,45.16
2023-03-03T09:08:56.388Z,45.13
2023-03-03T09:11:29.552Z,45.70
2023-03-03T09:14:11.353Z,45.62
2023-03-03T09:16:53.243Z,45.54
2023-03-03T09:19:34.840Z,45.08
2023-03-03T09:22:23.907Z,45.20
2023-03-03T09:24:57.034Z,45.64
2023-03-03T09:27:37.809Z,45.71
2023-03-03T09:30:44.794Z,46.02
2023-03-03T09:33:43.426Z,46.17
2023-03-03T09:36:38.517Z,46.17
2023-03-03T09:39:36.706Z,46.20
2023-03-03T09:42:20.546Z,45.84
2023-03-03T09:45:21.781Z,46.28
2023-03-03T09:48:20.089Z,46.74
2023-03-03T09:51:29.441Z,46.18
2023-03-03T09:54:20.540Z,46.26
2023-03-03T09:57:16.521Z,46.66
2023-03-03T10:00:24.517Z,46.45
2023-03-03T10:03:46.309Z,46.55
2023-03-03T10:06:33.207Z,45.92
2023-03-03T10:09:37.033Z,46.36
2023-03-03T10:12:10.544Z,46.22
2023-03-03T10:15:19.875Z,46.01
2023-03-03T10:17:53.841Z,45.44
2023-03-03T10:20:53.565Z,45.85
2023-03-03T10:23:59.063Z,45.95
2023-03-03T10:27:12.988Z,45.92
2023-03-03T10:30:06.510Z,45.31
2023-03-03T10:32:56.008Z,45.07
2023-03-03T10:36:05.849Z,45.28
2023-03-03T10:39:03.345Z,44.90
2023-03-03T10:42:15.821Z,44.32
2023-03-03T10:45:31.885Z,44.33
2023-03-03T10:48:28.680Z,43.90
2023-03-03T10:51:07.000Z,44.02
2023-03-03T10:53:59.371Z,43.92
2023-03-03T10:56:55.353Z,43.69
2023-03-03T10:59:54.902Z,43.85
2023-03-03T11:03:00.707Z,43.32
2023-03-03T11:05:51.374Z,43.14
2023-03-03T11:09:14.060Z,42.96
2023-03-03T11:12:32.724Z,42.22
2023-03-03T11:15:24.041Z,41.86
2023-03-03T11:18:25.597Z,41.50
2023-03-03T11:21:41.516Z,40.50
2023-03-03T11:25:01.293Z,40.46
2023-03-03T11:27:56.388Z,40.38
2023-03-03T11:30:43.660Z,40.74
2023-03-03T11:33:34.038Z,41.13
2023-03-03T11:36:35.229Z,40.76
2023-03-03T11:39:07.593Z,40.30
2023-03-03T11:42:18.153Z,40.63
2023-03-03T11:44:52.788Z,39.89
2023-03-03T11:47:48.658Z,40.11
2023-03-03T11:50:48.961Z,40.42
2023-03-03T11:53:49.352Z,40.20
2023-03-03T11:56:42.618Z,40.13
2023-03-03T11:59:30.081Z,40.15
2023-03-03T12:02:15.977Z,39.99
2023-03-03T12:04:59.205Z,40.09
2023-03-03T12:07:57.750Z,39.74
2023-03-03T12:11:13.104Z,39.54
2023-03-03T12:13:58.098Z,39.38
2023-03-03T12:17:17.336Z,39.99
2023-03-03T12:20:09.636Z,39.70
2023-03-03T12:22:57.784Z,39.68
2023-03-03T12:25:42.296Z,38.92
2023-03-03T12:28:38.417Z,39.39
2023-03-03T12:31:23.938Z,38.38
2023-03-03T12:34:12.271Z,38.79
2023-03-03T12:37:05.165Z,38.86
2023-03-03T12:39:48.926Z,38.52
2023-03-03T12:42:25.213Z,37.98
2023-03-03T12:45:21.319Z,38.13
2023-03-03T12:47:57.528Z,37.67
2023-03-03T12:51:06.793Z,37.80
2023-03-03T12:54:08.440Z,37.42
2023-03-03T12:56:54.926Z,37.86
2023-03-03T12:59:33.217Z,37.74
2023-03-03T13:02:25.716Z,37.04
2023-03-03T13:05:38.226Z,37.67
2023-03-03T13:08:31.838Z,37.29
2023-03-03T13:11:36.773Z,37.43
2023-03-03T13:14:41.304Z,36.99
2023-03-03T13:17:27.705Z,36.64
2023-03-03T13:20:03.209Z,36.68
2023-03-03T13:22:58.739Z,36.49
2023-03-03T13:25:50.594Z,36.74
2023-03-03T13:28:26.185Z,36.89
2023-03-03T13:31:11.850Z,36.58
2023-03-03T13:33:48.882Z,36.24
2023-03-03T13:36:18.139Z,36.50
2023-03-03T13:38:53.865Z,36.53
2023-03-03T13:41:38.924Z,36.51
2023-03-03T13:44:42.521Z,36.58
2023-03-03T13:47:50.674Z,36.36
2023-03-03T13:50:45.040Z,36.15
2023-03-03T13:53:57.396Z,36.72
2023-03-03T13:57:16.614Z,36.61
2023-03-03T14:00:06.648Z,36.64
2023-03-03T14:03:18.268Z,36.78
2023-03-03T14:05:50.327Z,36.19
2023-03-03T14:08:55.925Z,36.47
2023-03-03T14:11:31.392Z,36.17
2023-03-03T14:14:20.100Z,36.37
2023-03-03T14:17:14.415Z,36.06
2023-03-03T14:20:03.256Z,35.65
2023-03-03T14:23:03.644Z,36.18
2023-03-03T14:26:03.953Z,36.05
2023-03-03T14:28:49.821Z,35.69
2023-03-03T14:31:31.694Z,36.06
2023-03-03T14:34:38.901Z,36.16
2023-03-03T14:37:46.691Z,36.29
2023-03-03T14:40:22.555Z,35.99
2023-03-03T14:42:52.841Z,35.91
2023-03-03T14:45:36.231Z,35.84
2023-03-03T14:48:25.740Z,35.32
2023-03-03T14:51:29.197Z,35.83
2023-03-03T14:53:58.079Z,35.92
2023-03-03T14:56:33.287Z,35.93
2023-03-03T14:59:23.574Z,35.48
2023-03-03T15:02:24.692Z,35.64
2023-03-03T15:05:23.994Z,35.53
2023-03-03T15:08:14.713Z,35.76
2023-03-03T15:10:45.837Z,35.49
2023-03-03T15:13:22.121Z,35.45
2023-03-03T15:15:58.936Z,35.43
2023-03-03T15:18:28.968Z,35.16
2023-03-03T15:21:08.917Z,35.65
2023-03-03T15:24:21.863Z,35.69
2023-03-03T15:27:01.970Z,35.08
2023-03-03T15:29:44.656Z,35.18
2023-03-03T15:33:17.188Z,35.20
2023-03-03T15:35:56.548Z,35.37
2023-03-03T15:38:56.556Z,35.16
2023-03-03T15:41:35.150Z,34.77
2023-03-03T15:44:19.951Z,35.12
2023-03-03T15:47:40.618Z,35.33
2023-03-03T15:50:27.193Z,35.30
2023-03-03T15:53:29.758Z,35.01
2023-03-03T15:56:35.730Z,35.66
2023-03-03T15:59:32.744Z,35.24
2023-03-03T16:02:24.889Z,35.12
2023-03-03T16:05:32.726Z,35.45
2023-03-03T16:08:23.256Z,35.39
2023-03-03T16:11:04.732Z,35.63
2023-03-03T16:13:59.163Z,35.25
2023-03-03T16:16:52.779Z,35.58
2023-03-03T16:19:34.944Z,35.62
2023-03-03T16:22:41.290Z,35.55
2023-03-03T16:25:40.426Z,35.56
2023-03-03T16:28:16.363Z,36.07
2023-03-03T16:31:29.630Z,35.95
2023-03-03T16:34:21.813Z,35.94
2023-03-03T16:37:03.302Z,35.80
2023-03-03T16:40:22.122Z,36.24
2023-03-03T16:43:18.552Z,36.14
2023-03-03T16:45:46.802Z,35.75
2023-03-03T16:48:50.582Z,36.35
2023-03-03T16:51:53.025Z,36.23
2023-03-03T16:54:54.148Z,36.15
2023-03-03T16:57:53.430Z,36.44
2023-03-03T17:00:40.569Z,36.47
2023-03-03T17:03:34.699Z,36.83
2023-03-03T17:06:50.142Z,36.89
2023-03-03T17:09:41.678Z,36.91
2023-03-03T17:12:33.181Z,36.90
2023-03-03T17:15:16.605Z,37.37
2023-03-03T17:18:11.357Z,37.42
2023-03-03T17:20:49.185Z,37.66
2023-03-03T17:24:05.442Z,38.32
2023-03-03T17:27:03.515Z,38.25
2023-03-03T17:29:55.143Z,38.73
2023-03-03T17:33:06.537Z,39.19
2023-03-03T17:35:55.914Z,38.87
2023-03-03T17:38:48.197Z,38.90
2023-03-03T17:41:41.887Z,39.44
2023-03-03T17:44:27.408Z,39.62
2023-03-03T17:47:01.556Z,39.61
2023-03-03T17:50:05.054Z,39.61
2023-03-03T17:52:43.280Z,39.87
2023-03-03T17:55:37.127Z,39.68
2023-03-03T17:58:44.802Z,40.01
2023-03-03T18:01:46.470Z,39.98
2023-03-03T18:04:29.834Z,40.41
2023-03-03T18:07:49.492Z,40.39
2023-03-03T18:11:03.083Z,40.28
2023-03-03T18:13:59.768Z,40.15
2023-03-03T18:17:24.126Z,40.19
2023-03-03T18:20:48.346Z,40.42
2023-03-03T18:23:39.566Z,40.85
2023-03-03T18:26:41.949Z,40.95
2023-03-03T18:29:22.121Z,40.82
2023-03-03T18:31:52.636Z,41.01
2023-03-03T18:34:20.014Z,41.01
2023-03-03T18:37:03.764Z,41.33
2023-03-03T18:39:45.922Z,41.21
2023-03-03T18:42:16.361Z,41.56
2023-03-03T18:44:45.165Z,41.92
2023-03-03T18:47:14.927Z,42.05
2023-03-03T18:50:31.356Z,42.14
2023-03-03T18:53:10.850Z,42.32
2023-03-03T18:55:50.996Z,42.78
2023-03-03T18:58:18.361Z,42.86
2023-03-03T19:01:32.128Z,42.45
2023-03-03T19:04:22.753Z,42.56
2023-03-03T19:07:08.757Z,42.90
2023-03-03T19:10:03.523Z,42.91
2023-03-03T19:12:54.389Z,43.07
2023-03-03T19:15:53.896Z,43.25
2023-03-03T19:18:27.680Z,42.92
2023-03-03T19:21:33.644Z,43.06
2023-03-03T19:24:24.087Z,42.88
2023-03-03T19:27:09.581Z,42.90
2023-03-03T19:29:46.019Z,42.95
2023-03-03T19:32:57.869Z,42.77
2023-03-03T19:35:53.982Z,42.66
2023-03-03T19:38:45.606Z,43.05
2023-03-03T19:41:24.832Z,43.10
2023-03-03T19:44:51.197Z,43.13
2023-03-03T19:47:44.459Z,43.62
2023-03-03T19:50:26.414Z,43.54
2023-03-03T19:53:35.593Z,43.21
2023-03-03T19:56:24.512Z,43.11
2023-03-03T19:59:13.765Z,43.58
2023-03-03T20:02:15.141Z,43.25
2023-03-03T20:05:02.982Z,43.22
2023-03-03T20:07:57.696Z,43.56
2023-03-03T20:10:43.064Z,43.56
2023-03-03T20:13:37.618Z,43.44
2023-03-03T20:16:40.665Z,43.15
2023-03-03T20:19:56.036Z,43.49
2023-03-03T20:22:46.301Z,43.48
2023-03-03T20:25:29.540Z,43.14
2023-03-03T20:28:29.784Z,43.18
2023-03-03T20:31:17.343Z,43.38
2023-03-03T20:34:43.990Z,44.00
2023-03-03T20:38:02.553Z,43.79
2023-03-03T20:40:45.640Z,43.71
2023-03-03T20:43:46.089Z,43.82
2023-03-03T20:46:44.914Z,43.83
2023-03-03T20:49:28.807Z,43.66
2023-03-03T20:52:40.585Z,44.08
2023-03-03T20:55:25.384Z,43.85
2023-03-03T20:58:15.041Z,43.82
2023-03-03T21:01:14.664Z,43.74
2023-03-03T21:03:47.669Z,44.35
2023-03-03T21:06:19.020Z,44.17
2023-03-03T21:08:56.129Z,44.61
2023-03-03T21:11:32.783Z,44.17
2023-03-03T21:14:24.282Z,44.09
2023-03-03T21:16:56.520Z,44.89
2023-03-03T21:19:36.603Z,44.43
2023-03-03T21:22:04.633Z,44.41
2023-03-03T21:24:56.666Z,44.45
2023-03-03T21:27:34.296Z,44.58
2023-03-03T21:30:08.484Z,44.54
2023-03-03T21:32:48.036Z,44.92
2023-03-03T21:35:23.261Z,44.62
2023-03-03T21:37:55.208Z,44.85
2023-03-03T21:40:31.739Z,44.79
2023-03-03T21:43:00.135Z,44.35
2023-03-03T21:45:29.962Z,44.25
2023-03-03T21:47:59.270Z,44.40
2023-03-03T21:50:32.030Z,44.38
2023-03-03T21:52:59.505Z,44.80
2023-03-03T21:55:27.009Z,44.35
2023-03-03T21:57:54.499Z,44.44
2023-03-03T22:00:22.388Z,44.40
2023-03-03T22:02:49.910Z,44.60
2023-03-03T22:05:17.378Z,44.99
2023-03-03T22:07:44.895Z,44.45
2023-03-03T22:10:12.620Z,44.38
2023-03-03T22:12:40.113Z,45.19
2023-03-03T22:15:08.028Z,44.80
2023-03-03T22:17:35.512Z,44.91
2023-03-03T22:20:03.038Z,44.91
2023-03-03T22:22:30.505Z,44.62
2023-03-03T22:24:58.017Z,45.31
2023-03-03T22:27:25.520Z,46.00
2023-03-03T22:29:53.026Z,45.58
2023-03-03T22:32:20.556Z,45.11
2023-03-03T22:34:48.253Z,45.37
2023-03-03T22:37:15.772Z,45.32
2023-03-03T22:39:43.253Z,45.80
2023-03-03T22:42:11.097Z,45.74
2023-03-03T22:44:38.726Z,45.18
2023-03-03T22:47:06.256Z,46.11
2023-03-03T22:49:33.800Z,45.71
2023-03-03T22:52:02.508Z,45.60
2023-03-03T22:54:30.035Z,46.14
2023-03-03T22:56:57.596Z,45.74
2023-03-03T22:59:25.100Z,46.18
2023-03-03T23:01:52.578Z,46.37
2023-03-03T23:04:20.113Z,46.08
2023-03-03T23:06:47.729Z,46.13
2023-03-03T23:09:15.253Z,45.46
2023-03-03T23:11:42.739Z,45.60
2023-03-03T23:14:10.268Z,46.12
2023-03-03T23:16:37.805Z,45.43
2023-03-03T23:19:05.342Z,46.15
2023-03-03T23:21:32.963Z,46.07
2023-03-03T23:24:01.143Z,46.01
2023-03-03T23:26:28.897Z,46.08
2023-03-03T23:28:56.629Z,46.08
2023-03-03T23:31:26.151Z,46.89
2023-03-03T23:33:53.705Z,46.28
2023-03-03T23:36:21.236Z,46.41
2023-03-03T23:38:48.812Z,46.82
2023-03-03T23:41:16.374Z,46.23
2023-03-03T23:43:43.899Z,46.91
2023-03-03T23:46:11.570Z,46.75
2023-03-03T23:48:39.109Z,47.09
2023-03-03T23:51:06.612Z,46.22
2023-03-03T23:53:34.244Z,46.72
2023-03-03T23:56:02.069Z,46.28
2023-03-03T23:58:29.621Z,46.38
